createdAt,value
2019-05-26T00:00:59.711Z,99.90
2019-05-26T00:03:26.159Z,99.90
2019-05-26T00:05:52.526Z,99.90
2019-05-26T00:08:18.928Z,99.90
2019-05-26T00:10:45.297Z,99.90
2019-05-26T00:13:11.833Z,99.90
2019-05-26T00:15:38.289Z,99.90
2019-05-26T00:18:04.778Z,99.90
2019-05-26T00:20:31.148Z,99.90
2019-05-26T00:22:57.770Z,99.90
2019-05-26T00:25:24.215Z,99.90
2019-05-26T00:27:50.790Z,99.90
2019-05-26T00:30:17.618Z,99.90
2019-05-26T00:32:44.051Z,99.90
2019-05-26T00:35:10.732Z,99.90
2019-05-26T00:37:48.380Z,99.90
2019-05-26T00:40:06.831Z,99.90
2019-05-26T00:42:33.301Z,99.90
2019-05-26T00:44:59.676Z,99.90
2019-05-26T00:47:26.040Z,99.90
2019-05-26T00:49:52.623Z,99.90
2019-05-26T00:52:19.067Z,99.90
2019-05-26T00:54:45.656Z,99.90
2019-05-26T00:57:12.131Z,99.90
2019-05-26T00:59:38.646Z,99.90
2019-05-26T01:02:05.107Z,99.90
2019-05-26T01:04:31.594Z,99.90
2019-05-26T01:06:58.119Z,99.90
2019-05-26T01:09:24.501Z,99.90
2019-05-26T01:11:50.873Z,99.90
2019-05-26T01:14:17.268Z,99.90
2019-05-26T01:16:43.759Z,99.90
2019-05-26T01:19:10.243Z,99.90
2019-05-26T01:21:36.668Z,99.90
2019-05-26T01:24:03.565Z,99.90
2019-05-26T01:26:30.149Z,99.90
2019-05-26T01:28:56.599Z,99.90
2019-05-26T01:31:23.127Z,99.90
2019-05-26T01:33:49.591Z,99.90
2019-05-26T01:36:16.161Z,99.90
2019-05-26T01:38:43.539Z,99.90
2019-05-26T01:41:09.955Z,99.90
2019-05-26T01:43:36.410Z,99.90
2019-05-26T01:46:03.103Z,99.90
2019-05-26T01:48:29.794Z,99.90
2019-05-26T01:50:56.413Z,99.90
2019-05-26T01:53:22.908Z,99.90
2019-05-26T01:55:49.447Z,99.90
2019-05-26T01:58:16.056Z,99.90
2019-05-26T02:00:42.469Z,99.80
2019-05-26T02:03:08.989Z,99.70
2019-05-26T02:05:35.479Z,99.50
2019-05-26T02:08:02.117Z,99.90
2019-05-26T02:10:28.809Z,99.70
2019-05-26T02:12:55.382Z,99.90
2019-05-26T02:15:22.700Z,99.30
2019-05-26T02:17:49.253Z,99.30
2019-05-26T02:20:16.031Z,98.90
2019-05-26T02:22:42.716Z,99.50
2019-05-26T02:25:10.034Z,98.80
2019-05-26T02:27:36.495Z,99.00
2019-05-26T02:30:06.695Z,99.10
2019-05-26T02:32:33.163Z,98.90
2019-05-26T02:34:59.616Z,98.80
2019-05-26T02:37:25.987Z,98.90
2019-05-26T02:39:52.365Z,98.60
2019-05-26T02:42:19.173Z,98.70
2019-05-26T02:44:45.545Z,99.00
2019-05-26T02:47:12.139Z,98.80
2019-05-26T02:49:38.513Z,99.10
2019-05-26T02:52:04.891Z,98.80
2019-05-26T02:54:31.583Z,99.00
2019-05-26T02:56:59.639Z,99.00
2019-05-26T02:59:26.097Z,99.00
2019-05-26T03:02:03.011Z,98.70
2019-05-26T03:04:21.565Z,98.80
2019-05-26T03:06:48.537Z,98.90
2019-05-26T03:09:22.713Z,98.70
2019-05-26T03:11:48.359Z,98.60
2019-05-26T03:14:15.628Z,98.80
2019-05-26T03:16:42.355Z,98.70
2019-05-26T03:19:12.951Z,98.80
2019-05-26T03:21:42.364Z,99.00
2019-05-26T03:24:12.625Z,99.10
2019-05-26T03:26:39.010Z,99.10
2019-05-26T03:29:18.938Z,98.80
2019-05-26T03:31:47.434Z,98.70
2019-05-26T03:34:14.013Z,98.90
2019-05-26T03:36:40.565Z,98.80
2019-05-26T03:39:07.136Z,98.80
2019-05-26T03:41:33.527Z,99.10
2019-05-26T03:43:59.987Z,98.80
2019-05-26T03:46:26.371Z,98.90
2019-05-26T03:48:52.800Z,98.60
2019-05-26T03:51:19.205Z,98.90
2019-05-26T03:53:45.624Z,98.80
2019-05-26T03:56:12.118Z,98.60
2019-05-26T03:58:39.367Z,98.70
2019-05-26T04:01:05.933Z,98.60
2019-05-26T04:03:32.435Z,98.60
2019-05-26T04:06:02.317Z,98.60
2019-05-26T04:08:28.812Z,98.30
2019-05-26T04:10:55.291Z,98.30
2019-05-26T04:13:21.800Z,98.10
2019-05-26T04:15:48.250Z,98.10
2019-05-26T04:18:14.698Z,98.10
2019-05-26T04:20:45.725Z,97.90
2019-05-26T04:23:10.558Z,98.00
2019-05-26T04:25:36.919Z,97.90
2019-05-26T04:28:03.476Z,97.90
2019-05-26T04:30:31.334Z,97.40
2019-05-26T04:32:57.810Z,97.60
2019-05-26T04:35:24.273Z,97.40
2019-05-26T04:37:50.764Z,97.40
2019-05-26T04:40:26.238Z,97.80
2019-05-26T04:42:45.427Z,97.50
2019-05-26T04:45:11.891Z,97.60
2019-05-26T04:47:38.365Z,97.30
2019-05-26T04:50:05.035Z,96.90
2019-05-26T04:52:31.404Z,96.90
2019-05-26T04:54:57.773Z,96.60
2019-05-26T04:57:24.154Z,96.60
2019-05-26T04:59:50.508Z,96.60
2019-05-26T05:02:17.017Z,96.70
2019-05-26T05:04:43.519Z,96.70
2019-05-26T05:07:09.991Z,96.60
2019-05-26T05:09:36.505Z,96.00
2019-05-26T05:12:03.324Z,96.00
2019-05-26T05:14:29.857Z,96.00
2019-05-26T05:16:56.222Z,95.90
2019-05-26T05:19:22.617Z,95.40
2019-05-26T05:21:49.114Z,95.20
2019-05-26T05:24:15.598Z,95.40
2019-05-26T05:26:42.011Z,95.30
2019-05-26T05:29:08.651Z,95.10
2019-05-26T05:31:36.180Z,94.80
2019-05-26T05:34:02.931Z,94.60
2019-05-26T05:36:29.423Z,94.00
2019-05-26T05:38:55.885Z,94.10
2019-05-26T05:41:22.244Z,93.60
2019-05-26T05:43:48.641Z,93.70
2019-05-26T05:46:15.084Z,93.40
2019-05-26T05:48:41.479Z,93.30
2019-05-26T05:51:08.071Z,93.00
2019-05-26T05:53:34.563Z,93.00
2019-05-26T05:56:01.235Z,92.40
2019-05-26T05:58:27.726Z,92.20
2019-05-26T06:00:54.223Z,91.90
2019-05-26T06:03:20.693Z,91.90
2019-05-26T06:05:47.385Z,91.00
2019-05-26T06:08:13.902Z,91.20
2019-05-26T06:10:40.361Z,90.20
2019-05-26T06:13:06.822Z,90.00
2019-05-26T06:15:33.328Z,89.60
2019-05-26T06:17:59.913Z,89.50
2019-05-26T06:20:26.581Z,89.30
2019-05-26T06:22:53.274Z,89.00
2019-05-26T06:25:19.802Z,88.70
2019-05-26T06:27:46.274Z,88.80
2019-05-26T06:30:13.061Z,88.60
2019-05-26T06:32:39.633Z,88.20
2019-05-26T06:35:07.212Z,87.40
2019-05-26T06:37:33.602Z,87.40
2019-05-26T06:39:59.958Z,86.70
2019-05-26T06:42:26.352Z,85.90
2019-05-26T06:44:54.086Z,85.70
2019-05-26T06:47:20.706Z,84.80
2019-05-26T06:49:47.160Z,84.90
2019-05-26T06:52:13.928Z,84.80
2019-05-26T06:54:40.404Z,84.30
2019-05-26T06:57:07.052Z,83.90
2019-05-26T06:59:33.618Z,83.20
2019-05-26T07:02:01.691Z,83.20
2019-05-26T07:04:28.275Z,82.70
2019-05-26T07:06:55.690Z,82.00
2019-05-26T07:09:23.269Z,81.80
2019-05-26T07:11:58.803Z,81.60
2019-05-26T07:14:17.933Z,80.80
2019-05-26T07:16:44.470Z,80.80
2019-05-26T07:19:11.012Z,81.10
2019-05-26T07:21:37.422Z,81.20
2019-05-26T07:24:04.106Z,80.00
2019-05-26T07:26:30.656Z,79.50
2019-05-26T07:28:57.022Z,79.40
2019-05-26T07:31:23.404Z,79.60
2019-05-26T07:33:49.774Z,79.50
2019-05-26T07:36:16.154Z,79.70
2019-05-26T07:38:42.541Z,79.80
2019-05-26T07:41:11.079Z,79.20
2019-05-26T07:43:37.588Z,79.30
2019-05-26T07:46:04.105Z,79.00
2019-05-26T07:48:30.540Z,78.60
2019-05-26T07:50:56.946Z,78.70
2019-05-26T07:53:23.305Z,78.00
2019-05-26T07:55:49.682Z,77.10
2019-05-26T07:58:16.037Z,76.30
2019-05-26T08:00:43.841Z,75.30
2019-05-26T08:03:10.267Z,75.30
2019-05-26T08:05:36.821Z,75.00
2019-05-26T08:08:12.698Z,74.10
2019-05-26T08:10:31.771Z,73.70
2019-05-26T08:12:58.369Z,72.80
2019-05-26T08:15:24.731Z,72.30
2019-05-26T08:17:51.179Z,70.80
2019-05-26T08:20:18.540Z,70.60
2019-05-26T08:22:45.019Z,66.80
2019-05-26T08:25:11.897Z,67.50
2019-05-26T08:27:38.370Z,66.70
2019-05-26T08:30:05.875Z,64.90
2019-05-26T08:32:32.362Z,64.00
2019-05-26T08:34:58.884Z,60.70
2019-05-26T08:37:25.345Z,58.70
2019-05-26T08:39:52.322Z,56.30
2019-05-26T08:42:26.775Z,57.20
2019-05-26T08:44:47.033Z,56.40
2019-05-26T08:47:14.555Z,53.90
2019-05-26T08:49:40.979Z,52.50
2019-05-26T08:52:07.261Z,51.90
2019-05-26T08:54:33.507Z,51.10
2019-05-26T08:56:59.810Z,51.80
2019-05-26T08:59:26.231Z,53.80
2019-05-26T09:01:52.745Z,54.50
2019-05-26T09:04:19.212Z,53.10
2019-05-26T09:06:45.749Z,53.40
2019-05-26T09:09:12.113Z,52.90
2019-05-26T09:11:39.580Z,51.60
2019-05-26T09:14:05.954Z,49.20
2019-05-26T09:16:32.456Z,47.30
2019-05-26T09:18:59.049Z,46.30
2019-05-26T09:21:25.419Z,46.60
2019-05-26T09:23:51.838Z,47.00
2019-05-26T09:26:18.286Z,46.50
2019-05-26T09:28:44.769Z,45.50
2019-05-26T09:31:11.130Z,44.20
2019-05-26T09:33:37.508Z,42.80
2019-05-26T09:36:04.046Z,42.00
2019-05-26T09:38:30.732Z,41.70
2019-05-26T09:40:57.090Z,39.90
2019-05-26T09:43:23.460Z,39.40
2019-05-26T09:45:49.960Z,39.20
2019-05-26T09:48:16.519Z,37.60
2019-05-26T09:50:42.889Z,37.00
2019-05-26T09:53:09.697Z,36.00
2019-05-26T09:55:36.250Z,35.70
2019-05-26T09:58:02.936Z,36.40
2019-05-26T10:00:29.524Z,35.40
2019-05-26T10:02:56.282Z,35.30
2019-05-26T10:05:23.899Z,34.40
2019-05-26T10:07:50.529Z,34.00
2019-05-26T10:10:17.515Z,33.10
2019-05-26T10:12:44.085Z,32.90
2019-05-26T10:15:10.988Z,35.80
2019-05-26T10:17:37.378Z,37.30
2019-05-26T10:20:08.230Z,37.40
2019-05-26T10:22:35.618Z,38.10
2019-05-26T10:25:06.536Z,38.00
2019-05-26T10:27:34.097Z,39.10
2019-05-26T10:30:00.698Z,40.70
2019-05-26T10:32:27.076Z,39.40
2019-05-26T10:34:53.770Z,39.30
2019-05-26T10:37:20.181Z,39.70
2019-05-26T10:39:47.646Z,38.40
2019-05-26T10:42:15.236Z,37.50
2019-05-26T10:44:41.605Z,36.10
2019-05-26T10:47:10.006Z,36.80
2019-05-26T10:49:36.342Z,37.20
2019-05-26T10:52:03.016Z,38.10
2019-05-26T10:54:29.480Z,39.00
2019-05-26T10:56:55.871Z,40.30
2019-05-26T10:59:22.267Z,40.30
2019-05-26T11:01:48.769Z,39.50
2019-05-26T11:04:15.304Z,40.90
2019-05-26T11:06:42.001Z,40.20
2019-05-26T11:09:08.648Z,39.70
2019-05-26T11:11:35.200Z,40.10
2019-05-26T11:14:03.445Z,36.40
2019-05-26T11:16:29.945Z,36.90
2019-05-26T11:18:56.404Z,35.00
2019-05-26T11:21:23.116Z,34.50
2019-05-26T11:23:50.684Z,35.90
2019-05-26T11:26:17.210Z,36.10
2019-05-26T11:28:43.705Z,35.60
2019-05-26T11:31:10.202Z,36.10
2019-05-26T11:33:36.701Z,37.50
2019-05-26T11:36:03.377Z,37.70
2019-05-26T11:38:33.266Z,38.60
2019-05-26T11:40:58.803Z,37.80
2019-05-26T11:43:25.746Z,37.30
2019-05-26T11:45:52.138Z,36.70
2019-05-26T11:48:18.603Z,36.10
2019-05-26T11:50:45.077Z,34.40
2019-05-26T11:53:11.454Z,33.80
2019-05-26T11:55:37.992Z,35.50
2019-05-26T11:58:04.581Z,36.30
2019-05-26T12:00:31.115Z,34.90
2019-05-26T12:03:00.369Z,34.40
2019-05-26T12:05:25.738Z,33.60
2019-05-26T12:07:52.253Z,35.10
2019-05-26T12:10:18.763Z,36.70
2019-05-26T12:12:45.346Z,37.90
2019-05-26T12:15:13.716Z,36.50
2019-05-26T12:17:40.074Z,36.60
2019-05-26T12:20:07.163Z,34.70
2019-05-26T12:22:33.720Z,35.10
2019-05-26T12:25:00.182Z,34.10
2019-05-26T12:27:27.398Z,34.00
2019-05-26T12:29:53.794Z,35.50
2019-05-26T12:32:20.194Z,34.40
2019-05-26T12:34:46.680Z,34.30
2019-05-26T12:37:13.148Z,34.00
2019-05-26T12:39:39.619Z,34.40
2019-05-26T12:42:06.210Z,33.40
2019-05-26T12:44:32.549Z,33.40
2019-05-26T12:46:58.929Z,32.70
2019-05-26T12:49:27.740Z,33.10
2019-05-26T12:51:53.735Z,33.80
2019-05-26T12:54:20.115Z,35.00
2019-05-26T12:56:46.659Z,33.70
2019-05-26T12:59:13.373Z,35.20
2019-05-26T13:01:39.797Z,36.60
2019-05-26T13:04:06.448Z,36.10
2019-05-26T13:06:32.839Z,35.40
2019-05-26T13:08:59.332Z,35.40
2019-05-26T13:11:25.812Z,36.00
2019-05-26T13:13:52.301Z,36.50
2019-05-26T13:16:18.687Z,36.80
2019-05-26T13:18:45.129Z,36.50
2019-05-26T13:21:11.841Z,36.70
2019-05-26T13:23:38.331Z,36.60
2019-05-26T13:26:04.949Z,36.70
2019-05-26T13:28:31.394Z,36.30
2019-05-26T13:30:57.931Z,37.20
2019-05-26T13:33:24.646Z,37.60
2019-05-26T13:35:51.030Z,37.80
2019-05-26T13:38:17.521Z,37.30
2019-05-26T13:40:45.170Z,38.90
2019-05-26T13:43:11.555Z,38.50
2019-05-26T13:45:37.918Z,38.10
2019-05-26T13:48:04.557Z,39.90
2019-05-26T13:50:30.902Z,39.00
2019-05-26T13:52:57.307Z,39.20
2019-05-26T13:55:23.806Z,40.30
2019-05-26T13:57:50.382Z,40.30
2019-05-26T14:00:17.737Z,41.30
2019-05-26T14:02:44.210Z,41.40
2019-05-26T14:05:11.085Z,40.00
2019-05-26T14:07:37.695Z,39.30
2019-05-26T14:10:05.565Z,39.10
2019-05-26T14:12:32.197Z,39.90
2019-05-26T14:14:58.842Z,40.30
2019-05-26T14:17:25.903Z,40.70
2019-05-26T14:19:52.819Z,39.40
2019-05-26T14:22:19.388Z,39.60
2019-05-26T14:24:53.681Z,40.30
2019-05-26T14:27:14.115Z,42.30
2019-05-26T14:29:40.501Z,41.90
2019-05-26T14:32:06.979Z,42.30
2019-05-26T14:34:33.388Z,42.40
2019-05-26T14:36:59.858Z,42.60
2019-05-26T14:39:26.225Z,42.10
2019-05-26T14:41:52.669Z,42.40
2019-05-26T14:44:19.089Z,43.30
2019-05-26T14:46:45.559Z,44.30
2019-05-26T14:49:12.161Z,43.60
2019-05-26T14:51:38.654Z,42.50
2019-05-26T14:54:05.193Z,42.80
2019-05-26T14:56:31.579Z,42.30
2019-05-26T14:58:57.950Z,42.20
2019-05-26T15:01:24.339Z,42.40
2019-05-26T15:03:51.434Z,42.50
2019-05-26T15:06:18.021Z,42.40
2019-05-26T15:08:44.534Z,42.70
2019-05-26T15:11:11.243Z,42.40
2019-05-26T15:13:37.735Z,42.00
2019-05-26T15:16:09.861Z,42.00
2019-05-26T15:18:32.642Z,42.60
2019-05-26T15:20:59.132Z,42.20
2019-05-26T15:23:25.728Z,42.20
2019-05-26T15:25:52.086Z,42.10
2019-05-26T15:28:18.672Z,43.40
2019-05-26T15:30:45.050Z,44.30
2019-05-26T15:33:11.526Z,44.90
2019-05-26T15:35:38.111Z,45.60
2019-05-26T15:38:05.717Z,45.60
2019-05-26T15:40:32.152Z,45.70
2019-05-26T15:42:58.526Z,45.40
2019-05-26T15:45:25.941Z,45.60
2019-05-26T15:47:52.514Z,45.60
2019-05-26T15:50:19.088Z,46.00
2019-05-26T15:52:46.440Z,45.30
2019-05-26T15:55:13.682Z,45.60
2019-05-26T15:57:40.048Z,45.80
2019-05-26T16:00:07.614Z,45.80
2019-05-26T16:02:34.317Z,45.70
2019-05-26T16:05:00.887Z,45.90
2019-05-26T16:07:27.251Z,46.50
2019-05-26T16:09:53.729Z,47.00
2019-05-26T16:12:20.217Z,46.90
2019-05-26T16:14:46.558Z,46.50
2019-05-26T16:17:13.068Z,46.90
2019-05-26T16:19:39.627Z,46.80
2019-05-26T16:22:06.106Z,47.60
2019-05-26T16:24:32.489Z,47.50
2019-05-26T16:27:02.004Z,47.30
2019-05-26T16:29:27.364Z,47.20
2019-05-26T16:31:53.754Z,46.80
2019-05-26T16:34:20.129Z,46.50
2019-05-26T16:36:46.550Z,47.30
2019-05-26T16:39:13.039Z,47.00
2019-05-26T16:41:39.539Z,47.00
2019-05-26T16:44:06.161Z,47.50
2019-05-26T16:46:32.529Z,47.50
2019-05-26T16:48:59.051Z,47.70
2019-05-26T16:51:25.555Z,47.40
2019-05-26T16:53:51.941Z,47.90
2019-05-26T16:56:18.334Z,48.10
2019-05-26T16:58:44.840Z,47.30
2019-05-26T17:01:11.222Z,47.70
2019-05-26T17:03:37.589Z,47.50
2019-05-26T17:06:07.804Z,47.30
2019-05-26T17:08:32.429Z,46.90
2019-05-26T17:10:59.006Z,47.80
2019-05-26T17:13:25.445Z,47.50
2019-05-26T17:15:51.966Z,47.80
2019-05-26T17:18:18.434Z,48.30
2019-05-26T17:20:44.959Z,48.50
2019-05-26T17:23:11.419Z,48.70
2019-05-26T17:25:38.920Z,48.60
2019-05-26T17:28:05.480Z,49.30
2019-05-26T17:33:18.867Z,49.60
2019-05-26T17:35:45.557Z,49.60
2019-05-26T17:38:13.048Z,49.60
2019-05-26T17:40:39.423Z,50.10
2019-05-26T17:43:05.827Z,50.30
2019-05-26T17:45:32.263Z,51.10
2019-05-26T17:47:58.731Z,51.70
2019-05-26T17:50:25.318Z,52.40
2019-05-26T17:52:51.717Z,52.60
2019-05-26T17:55:18.415Z,53.40
2019-05-26T17:57:44.892Z,53.30
2019-05-26T18:00:13.639Z,53.70
2019-05-26T18:02:41.206Z,54.10
2019-05-26T18:05:08.112Z,53.70
2019-05-26T18:07:35.176Z,54.30
2019-05-26T18:10:03.146Z,54.20
2019-05-26T18:12:29.570Z,54.10
2019-05-26T18:14:56.134Z,54.20
2019-05-26T18:17:22.662Z,54.40
2019-05-26T18:19:49.125Z,54.40
2019-05-26T18:22:15.542Z,54.60
2019-05-26T18:24:53.021Z,55.00
2019-05-26T18:27:10.478Z,55.30
2019-05-26T18:29:38.947Z,55.50
2019-05-26T18:32:05.550Z,55.90
2019-05-26T18:34:32.131Z,56.80
2019-05-26T18:36:58.519Z,57.20
2019-05-26T18:39:25.102Z,57.70
2019-05-26T18:41:51.596Z,58.80
2019-05-26T18:44:18.092Z,60.30
2019-05-26T18:46:44.475Z,61.30
2019-05-26T18:49:10.862Z,62.10
2019-05-26T18:51:38.687Z,63.40
2019-05-26T18:54:05.288Z,64.10
2019-05-26T18:56:31.850Z,64.50
2019-05-26T18:58:58.289Z,64.80
2019-05-26T19:01:24.851Z,65.80
2019-05-26T19:03:51.428Z,66.70
2019-05-26T19:06:17.928Z,67.60
2019-05-26T19:08:44.506Z,67.70
2019-05-26T19:11:12.108Z,67.60
2019-05-26T19:13:38.586Z,68.60
2019-05-26T19:16:05.135Z,68.30
2019-05-26T19:18:31.583Z,68.70
2019-05-26T19:20:57.952Z,69.40
2019-05-26T19:23:24.342Z,69.70
2019-05-26T19:25:50.746Z,70.00
2019-05-26T19:28:17.112Z,70.90
2019-05-26T19:30:49.712Z,71.70
2019-05-26T19:33:16.431Z,72.30
2019-05-26T19:35:42.877Z,72.70
2019-05-26T19:38:09.484Z,73.30
2019-05-26T19:40:35.932Z,73.60
2019-05-26T19:43:02.874Z,74.20
2019-05-26T19:45:29.275Z,74.80
2019-05-26T19:47:55.670Z,75.60
2019-05-26T19:50:22.447Z,75.80
2019-05-26T19:52:50.146Z,76.50
2019-05-26T19:55:18.398Z,76.80
2019-05-26T19:57:45.068Z,77.00
2019-05-26T20:00:14.139Z,77.40
2019-05-26T20:02:40.998Z,78.10
2019-05-26T20:05:07.683Z,78.10
2019-05-26T20:07:34.236Z,78.30
2019-05-26T20:10:00.609Z,78.80
2019-05-26T20:12:27.075Z,78.80
2019-05-26T20:14:53.664Z,79.70
2019-05-26T20:17:20.079Z,80.30
2019-05-26T20:19:46.506Z,80.70
2019-05-26T20:22:13.138Z,81.20
2019-05-26T20:24:39.799Z,81.70
2019-05-26T20:27:06.295Z,82.20
2019-05-26T20:29:32.697Z,82.80
2019-05-26T20:31:59.084Z,83.10
2019-05-26T20:34:26.658Z,83.60
2019-05-26T20:36:53.152Z,84.00
2019-05-26T20:39:19.498Z,84.30
2019-05-26T20:41:45.911Z,84.60
2019-05-26T20:44:12.272Z,85.00
2019-05-26T20:46:38.879Z,85.10
2019-05-26T20:49:05.324Z,85.50
2019-05-26T20:51:31.847Z,86.20
2019-05-26T20:53:58.331Z,86.70
2019-05-26T20:56:24.921Z,87.00
2019-05-26T20:58:51.487Z,87.30
2019-05-26T21:01:17.998Z,87.60
2019-05-26T21:03:44.452Z,87.70
2019-05-26T21:06:10.873Z,87.70
2019-05-26T21:08:37.274Z,87.70
2019-05-26T21:11:03.957Z,88.00
2019-05-26T21:13:30.363Z,88.10
2019-05-26T21:15:56.717Z,88.10
2019-05-26T21:18:23.111Z,88.30
2019-05-26T21:20:49.702Z,88.50
2019-05-26T21:23:16.195Z,88.90
2019-05-26T21:25:43.035Z,89.30
2019-05-26T21:28:09.596Z,89.50
2019-05-26T21:30:36.089Z,89.70
2019-05-26T21:33:03.128Z,89.90
2019-05-26T21:35:29.713Z,90.00
2019-05-26T21:37:56.212Z,90.20
2019-05-26T21:40:22.830Z,90.20
2019-05-26T21:42:49.465Z,90.30
2019-05-26T21:45:16.085Z,90.40
2019-05-26T21:47:42.514Z,90.60
2019-05-26T21:50:09.743Z,90.80
2019-05-26T21:52:36.834Z,90.90
2019-05-26T21:55:06.807Z,91.00
2019-05-26T21:57:34.115Z,91.20
2019-05-26T22:00:00.604Z,91.50
2019-05-26T22:02:27.281Z,91.50
2019-05-26T22:04:53.866Z,91.30
2019-05-26T22:07:20.441Z,91.60
2019-05-26T22:09:46.815Z,91.60
2019-05-26T22:12:13.250Z,91.80
2019-05-26T22:14:39.751Z,91.90
2019-05-26T22:17:06.339Z,91.90
2019-05-26T22:19:32.731Z,92.00
2019-05-26T22:21:59.143Z,92.20
2019-05-26T22:24:25.516Z,92.30
2019-05-26T22:27:10.420Z,92.50
2019-05-26T22:29:37.621Z,92.70
2019-05-26T22:32:04.310Z,92.90
2019-05-26T22:34:30.678Z,93.20
2019-05-26T22:36:57.058Z,93.20
2019-05-26T22:39:23.449Z,93.50
2019-05-26T22:41:49.894Z,93.10
2019-05-26T22:44:16.304Z,93.70
2019-05-26T22:47:01.541Z,93.60
2019-05-26T22:49:28.042Z,93.50
2019-05-26T22:51:54.537Z,93.70
2019-05-26T22:54:22.127Z,93.90
2019-05-26T22:56:48.609Z,94.10
2019-05-26T22:59:14.978Z,94.10
2019-05-26T23:01:43.612Z,93.90
2019-05-26T23:04:10.272Z,94.10
2019-05-26T23:06:36.647Z,94.60
2019-05-26T23:09:04.549Z,95.00
2019-05-26T23:11:31.036Z,95.10
2019-05-26T23:13:57.643Z,95.30
2019-05-26T23:16:24.263Z,94.80
2019-05-26T23:18:51.223Z,95.10
2019-05-26T23:21:17.932Z,95.10
2019-05-26T23:23:44.416Z,95.50
2019-05-26T23:26:10.947Z,95.50
2019-05-26T23:28:37.845Z,96.40
2019-05-26T23:31:05.163Z,95.80
2019-05-26T23:33:31.628Z,96.30
2019-05-26T23:35:58.111Z,95.50
2019-05-26T23:38:24.543Z,95.50
2019-05-26T23:40:51.027Z,96.00
2019-05-26T23:43:17.519Z,96.90
2019-05-26T23:45:43.981Z,97.20
2019-05-26T23:48:10.562Z,97.00
2019-05-26T23:50:37.121Z,96.90
2019-05-26T23:53:03.644Z,96.60
2019-05-26T23:55:29.995Z,96.50
2019-05-26T23:58:15.084Z,96.50
